createdAt,value
2023-03-07T00:02:10.604Z,98768.53
2023-03-07T00:09:28.765Z,98773.44
2023-03-07T00:16:52.446Z,98777.38
2023-03-07T00:24:12.340Z,98778.75
2023-03-07T00:31:30.636Z,98767.44
2023-03-07T00:38:49.134Z,98769.78
2023-03-07T00:46:09.902Z,98750.28
2023-03-07T00:53:28.822Z,98751.41
2023-03-07T01:00:47.496Z,98737.22
2023-03-07T01:08:07.895Z,98734.44
2023-03-07T01:15:26.516Z,98728.31
2023-03-07T01:22:45.917Z,98718.22
2023-03-07T01:30:06.245Z,98707.56
2023-03-07T01:37:26.512Z,98689.84
2023-03-07T01:45:03.912Z,98691.59
2023-03-07T01:52:54.634Z,98677.97
2023-03-07T02:09:15.875Z,98678.66
2023-03-07T02:16:34.255Z,98674.84
2023-03-07T02:23:58.090Z,98670.09
2023-03-07T02:31:19.755Z,98667.31
2023-03-07T02:38:42.287Z,98664.03
2023-03-07T02:46:01.111Z,98647.97
2023-03-07T02:53:21.273Z,98641.72
2023-03-07T03:00:40.568Z,98640.88
2023-03-07T03:07:59.263Z,98627.66
2023-03-07T03:15:19.179Z,98631.59
2023-03-07T03:22:37.390Z,98622.28
2023-03-07T03:29:57.460Z,98617.47
2023-03-07T03:37:17.541Z,98613.47
2023-03-07T03:44:35.895Z,98594.25
2023-03-07T03:51:54.407Z,98604.34
2023-03-07T03:59:14.230Z,98593.50
2023-03-07T04:06:35.045Z,98591.28
2023-03-07T04:13:54.102Z,98588.41
2023-03-07T04:21:15.684Z,98587.31
2023-03-07T04:28:45.563Z,98587.38
2023-03-07T04:36:34.598Z,98583.97
2023-03-07T04:43:52.806Z,98572.94
2023-03-07T04:51:11.074Z,98552.94
2023-03-07T04:58:31.909Z,98545.34
2023-03-07T05:05:50.277Z,98534.06
2023-03-07T05:13:08.671Z,98520.97
2023-03-07T05:20:30.391Z,98515.25
2023-03-07T05:27:49.951Z,98509.97
2023-03-07T05:35:09.943Z,98514.78
2023-03-07T05:42:29.770Z,98504.91
2023-03-07T05:49:48.178Z,98506.78
2023-03-07T05:57:06.623Z,98495.59
2023-03-07T06:04:26.261Z,98478.06
2023-03-07T06:11:44.501Z,98481.34
2023-03-07T06:19:02.816Z,98474.44
2023-03-07T06:26:22.772Z,98473.34
2023-03-07T06:33:44.778Z,98467.09
2023-03-07T06:41:04.759Z,98469.47
2023-03-07T06:48:25.694Z,98460.91
2023-03-07T06:55:44.652Z,98449.41
2023-03-07T07:03:03.866Z,98445.22
2023-03-07T07:10:23.923Z,98432.88
2023-03-07T07:17:42.383Z,98419.59
2023-03-07T07:25:00.849Z,98421.31
2023-03-07T07:32:20.848Z,98422.06
2023-03-07T07:39:41.592Z,98418.44
2023-03-07T07:46:59.839Z,98413.06
2023-03-07T07:54:19.865Z,98423.88
2023-03-07T08:01:40.303Z,98399.28
2023-03-07T08:09:00.213Z,98380.06
2023-03-07T08:16:22.668Z,98363.44
2023-03-07T08:23:40.937Z,98356.16
2023-03-07T08:30:59.106Z,98356.44
2023-03-07T08:38:18.695Z,98340.22
2023-03-07T08:45:38.421Z,98334.91
2023-03-07T08:53:02.269Z,98336.34
2023-03-07T09:00:23.379Z,98332.50
2023-03-07T09:07:42.971Z,98324.72
2023-03-07T09:15:01.474Z,98331.63
2023-03-07T09:22:21.183Z,98314.78
2023-03-07T09:29:39.471Z,98309.94
2023-03-07T09:36:57.760Z,98302.44
2023-03-07T09:44:24.178Z,98315.41
2023-03-07T09:52:00.080Z,98303.84
2023-03-07T09:59:24.414Z,98301.88
2023-03-07T10:06:43.623Z,98289.78
2023-03-07T10:14:22.966Z,98291.00
2023-03-07T10:21:46.766Z,98287.72
2023-03-07T10:29:15.187Z,98287.50
2023-03-07T10:36:41.438Z,98276.16
2023-03-07T10:52:41.576Z,98267.25
2023-03-07T11:00:16.415Z,98254.13
2023-03-07T11:07:35.963Z,98261.63
2023-03-07T11:14:58.170Z,98258.00
2023-03-07T11:22:28.979Z,98243.78
2023-03-07T11:29:49.630Z,98239.38
2023-03-07T11:37:33.399Z,98245.31
2023-03-07T11:44:54.545Z,98222.03
2023-03-07T11:52:34.044Z,98219.06
2023-03-07T12:00:18.449Z,98213.66
2023-03-07T12:08:12.593Z,98207.75
2023-03-07T12:15:38.010Z,98202.38
2023-03-07T12:23:06.421Z,98185.34
2023-03-07T12:30:28.011Z,98180.66
2023-03-07T12:37:50.505Z,98176.31
2023-03-07T12:45:11.412Z,98167.78
2023-03-07T12:52:35.942Z,98162.09
2023-03-07T12:59:59.987Z,98160.41
2023-03-07T13:07:20.040Z,98158.91
2023-03-07T13:14:39.873Z,98139.84
2023-03-07T13:21:59.794Z,98148.69
2023-03-07T13:29:18.349Z,98152.56
2023-03-07T13:36:38.019Z,98141.38
2023-03-07T13:44:03.995Z,98129.31
2023-03-07T13:51:22.622Z,98131.47
2023-03-07T13:58:46.113Z,98112.53
2023-03-07T14:06:09.758Z,98106.78
2023-03-07T14:14:02.096Z,98097.34
2023-03-07T14:21:34.269Z,98089.88
2023-03-07T14:28:53.791Z,98089.00
2023-03-07T14:37:15.745Z,98083.72
2023-03-07T14:45:06.202Z,98071.03
2023-03-07T14:52:31.187Z,98064.31
2023-03-07T15:00:09.906Z,98069.19
2023-03-07T15:07:30.601Z,98075.41
2023-03-07T15:14:50.050Z,98055.88
2023-03-07T15:22:16.040Z,98063.72
2023-03-07T15:29:34.513Z,98052.91
2023-03-07T15:36:52.879Z,98028.06
2023-03-07T15:44:21.347Z,98046.16
2023-03-07T15:51:39.659Z,98036.34
2023-03-07T15:59:02.765Z,98023.38
2023-03-07T16:06:32.488Z,98023.19
2023-03-07T16:13:50.855Z,98025.44
2023-03-07T16:21:10.755Z,98018.22
2023-03-07T16:28:30.635Z,98013.75
2023-03-07T16:35:48.862Z,98017.78
2023-03-07T16:43:07.051Z,98020.78
2023-03-07T16:50:28.212Z,98025.09
2023-03-07T16:57:47.388Z,98032.81
2023-03-07T17:05:05.954Z,98034.63
2023-03-07T17:12:26.120Z,98031.59
2023-03-07T17:19:44.328Z,98036.44
2023-03-07T17:27:03.785Z,98054.28
2023-03-07T17:34:26.664Z,98047.25
2023-03-07T17:41:44.931Z,98051.28
2023-03-07T17:49:04.152Z,98040.78
2023-03-07T17:56:24.032Z,98052.03
2023-03-07T18:03:42.625Z,98058.78
2023-03-07T18:11:04.318Z,98049.03
2023-03-07T18:18:24.068Z,98044.00
2023-03-07T18:25:42.222Z,98040.31
2023-03-07T18:33:00.393Z,98043.38
2023-03-07T18:40:22.198Z,98047.97
2023-03-07T18:47:40.392Z,98056.34
2023-03-07T18:54:58.636Z,98047.22
2023-03-07T19:02:18.230Z,98034.28
2023-03-07T19:09:36.537Z,98039.69
2023-03-07T19:16:54.989Z,98035.81
2023-03-07T19:24:14.674Z,98040.94
2023-03-07T19:31:33.363Z,98042.56
2023-03-07T19:38:52.984Z,98046.97
2023-03-07T19:46:14.714Z,98050.28
2023-03-07T19:53:33.296Z,98053.63
2023-03-07T20:00:51.574Z,98055.41
2023-03-07T20:08:11.698Z,98058.13
2023-03-07T20:15:30.077Z,98059.81
2023-03-07T20:22:48.238Z,98061.16
2023-03-07T20:30:09.230Z,98068.16
2023-03-07T20:37:27.676Z,98071.50
2023-03-07T20:44:45.909Z,98065.91
2023-03-07T21:01:39.074Z,98090.72
2023-03-07T21:08:59.533Z,98096.81
2023-03-07T21:16:19.140Z,98117.16
2023-03-07T21:23:38.843Z,98138.66
2023-03-07T21:31:01.196Z,98155.75
2023-03-07T21:38:19.536Z,98162.56
2023-03-07T21:45:39.268Z,98154.31
2023-03-07T22:02:11.710Z,98180.69
2023-03-07T22:09:30.102Z,98182.63
2023-03-07T22:16:48.292Z,98179.81
2023-03-07T22:24:08.248Z,98181.59
2023-03-07T22:31:27.170Z,98186.88
2023-03-07T22:38:45.713Z,98179.81
2023-03-07T22:46:06.922Z,98185.81
2023-03-07T22:53:27.152Z,98196.72
2023-03-07T23:00:45.806Z,98192.75
2023-03-07T23:08:06.260Z,98188.81
2023-03-07T23:15:25.288Z,98197.56
2023-03-07T23:32:17.737Z,98213.97
2023-03-07T23:39:35.971Z,98230.91
2023-03-07T23:46:54.087Z,98229.91
2023-03-07T23:54:13.693Z,98243.97
